sensor_id;sensor_type;location;lat;lon;timestamp;P1;durP1;ratioP1;P2;durP2;ratioP2
10191;SDS011;17580;50.850;4.504;2023-12-28T00:02:04;2.07;;;1.97;;
10191;SDS011;17580;50.850;4.504;2023-12-28T00:04:32;2.00;;;1.90;;
10191;SDS011;17580;50.850;4.504;2023-12-28T00:07:01;2.47;;;2.27;;
10191;SDS011;17580;50.850;4.504;2023-12-28T00:09:29;2.67;;;2.50;;
10191;SDS011;17580;50.850;4.504;2023-12-28T00:11:57;2.60;;;2.40;;
10191;SDS011;17580;50.850;4.504;2023-12-28T00:14:25;2.17;;;1.97;;
10191;SDS011;17580;50.850;4.504;2023-12-28T00:16:52;2.87;;;2.27;;
10191;SDS011;17580;50.850;4.504;2023-12-28T00:19:19;4.10;;;2.53;;
10191;SDS011;17580;50.850;4.504;2023-12-28T00:21:47;2.60;;;2.40;;
10191;SDS011;17580;50.850;4.504;2023-12-28T00:24:14;2.87;;;2.03;;
10191;SDS011;17580;50.850;4.504;2023-12-28T00:26:42;3.03;;;2.73;;
10191;SDS011;17580;50.850;4.504;2023-12-28T00:29:11;2.80;;;2.60;;
10191;SDS011;17580;50.850;4.504;2023-12-28T00:31:38;4.10;;;2.13;;
10191;SDS011;17580;50.850;4.504;2023-12-28T00:34:05;1.90;;;1.80;;
10191;SDS011;17580;50.850;4.504;2023-12-28T00:36:32;2.77;;;2.40;;
10191;SDS011;17580;50.850;4.504;2023-12-28T00:39:00;5.63;;;2.10;;
10191;SDS011;17580;50.850;4.504;2023-12-28T00:41:27;3.57;;;2.13;;
10191;SDS011;17580;50.850;4.504;2023-12-28T00:43:55;2.40;;;2.20;;
10191;SDS011;17580;50.850;4.504;2023-12-28T00:46:23;2.73;;;2.13;;
10191;SDS011;17580;50.850;4.504;2023-12-28T00:48:50;2.40;;;2.20;;
10191;SDS011;17580;50.850;4.504;2023-12-28T00:51:18;3.07;;;2.30;;
10191;SDS011;17580;50.850;4.504;2023-12-28T00:53:45;3.03;;;2.43;;
10191;SDS011;17580;50.850;4.504;2023-12-28T00:56:12;3.27;;;2.50;;
10191;SDS011;17580;50.850;4.504;2023-12-28T00:58:39;5.20;;;2.20;;
10191;SDS011;17580;50.850;4.504;2023-12-28T01:01:08;4.43;;;2.57;;
10191;SDS011;17580;50.850;4.504;2023-12-28T01:03:37;3.00;;;2.80;;
10191;SDS011;17580;50.850;4.504;2023-12-28T01:06:04;2.53;;;2.20;;
10191;SDS011;17580;50.850;4.504;2023-12-28T01:08:32;2.33;;;2.13;;
10191;SDS011;17580;50.850;4.504;2023-12-28T01:11:00;2.73;;;2.47;;
10191;SDS011;17580;50.850;4.504;2023-12-28T01:13:27;2.60;;;2.33;;
10191;SDS011;17580;50.850;4.504;2023-12-28T01:15:55;2.93;;;2.10;;
10191;SDS011;17580;50.850;4.504;2023-12-28T01:18:23;2.40;;;2.23;;
10191;SDS011;17580;50.850;4.504;2023-12-28T01:20:51;3.00;;;2.70;;
10191;SDS011;17580;50.850;4.504;2023-12-28T01:23:19;2.73;;;2.20;;
10191;SDS011;17580;50.850;4.504;2023-12-28T01:25:46;2.43;;;2.23;;
10191;SDS011;17580;50.850;4.504;2023-12-28T01:28:13;3.57;;;2.47;;
10191;SDS011;17580;50.850;4.504;2023-12-28T01:30:40;2.30;;;2.20;;
10191;SDS011;17580;50.850;4.504;2023-12-28T01:33:09;3.53;;;2.50;;
10191;SDS011;17580;50.850;4.504;2023-12-28T01:35:36;2.50;;;2.40;;
10191;SDS011;17580;50.850;4.504;2023-12-28T01:38:05;3.27;;;2.63;;
10191;SDS011;17580;50.850;4.504;2023-12-28T01:40:32;5.03;;;2.27;;
10191;SDS011;17580;50.850;4.504;2023-12-28T01:42:59;3.37;;;2.37;;
10191;SDS011;17580;50.850;4.504;2023-12-28T01:45:27;3.67;;;2.50;;
10191;SDS011;17580;50.850;4.504;2023-12-28T01:47:54;1.97;;;1.87;;
10191;SDS011;17580;50.850;4.504;2023-12-28T01:50:23;3.87;;;2.10;;
10191;SDS011;17580;50.850;4.504;2023-12-28T01:52:50;3.17;;;2.10;;
10191;SDS011;17580;50.850;4.504;2023-12-28T01:55:20;2.20;;;2.00;;
10191;SDS011;17580;50.850;4.504;2023-12-28T01:57:47;2.83;;;2.10;;
10191;SDS011;17580;50.850;4.504;2023-12-28T02:00:14;3.33;;;2.10;;
10191;SDS011;17580;50.850;4.504;2023-12-28T02:02:42;2.23;;;1.83;;
10191;SDS011;17580;50.850;4.504;2023-12-28T02:05:10;2.90;;;2.17;;
10191;SDS011;17580;50.850;4.504;2023-12-28T02:07:38;5.70;;;2.00;;
10191;SDS011;17580;50.850;4.504;2023-12-28T02:10:05;2.40;;;2.20;;
10191;SDS011;17580;50.850;4.504;2023-12-28T02:12:34;4.40;;;2.67;;
10191;SDS011;17580;50.850;4.504;2023-12-28T02:15:02;4.00;;;2.30;;
10191;SDS011;17580;50.850;4.504;2023-12-28T02:17:30;2.90;;;1.90;;
10191;SDS011;17580;50.850;4.504;2023-12-28T02:20:00;2.10;;;1.90;;
10191;SDS011;17580;50.850;4.504;2023-12-28T02:22:31;2.43;;;2.20;;
10191;SDS011;17580;50.850;4.504;2023-12-28T02:25:04;3.80;;;2.20;;
10191;SDS011;17580;50.850;4.504;2023-12-28T02:27:33;2.93;;;1.83;;
10191;SDS011;17580;50.850;4.504;2023-12-28T02:30:00;2.40;;;1.90;;
10191;SDS011;17580;50.850;4.504;2023-12-28T02:32:31;4.30;;;1.80;;
10191;SDS011;17580;50.850;4.504;2023-12-28T02:35:01;2.67;;;1.90;;
10191;SDS011;17580;50.850;4.504;2023-12-28T02:37:31;2.70;;;1.90;;
10191;SDS011;17580;50.850;4.504;2023-12-28T02:40:00;2.97;;;2.20;;
10191;SDS011;17580;50.850;4.504;2023-12-28T02:42:29;5.17;;;2.10;;
10191;SDS011;17580;50.850;4.504;2023-12-28T02:44:57;3.60;;;1.87;;
10191;SDS011;17580;50.850;4.504;2023-12-28T02:47:24;6.30;;;2.30;;
10191;SDS011;17580;50.850;4.504;2023-12-28T02:49:51;3.87;;;2.00;;
10191;SDS011;17580;50.850;4.504;2023-12-28T02:52:19;5.70;;;2.57;;
10191;SDS011;17580;50.850;4.504;2023-12-28T02:54:46;3.33;;;2.03;;
10191;SDS011;17580;50.850;4.504;2023-12-28T02:57:13;2.73;;;2.10;;
10191;SDS011;17580;50.850;4.504;2023-12-28T02:59:44;2.07;;;1.83;;
10191;SDS011;17580;50.850;4.504;2023-12-28T03:02:12;2.70;;;2.07;;
10191;SDS011;17580;50.850;4.504;2023-12-28T03:04:39;4.93;;;2.10;;
10191;SDS011;17580;50.850;4.504;2023-12-28T03:07:07;6.87;;;2.30;;
10191;SDS011;17580;50.850;4.504;2023-12-28T03:09:35;4.83;;;2.50;;
10191;SDS011;17580;50.850;4.504;2023-12-28T03:12:04;5.03;;;2.37;;
10191;SDS011;17580;50.850;4.504;2023-12-28T03:14:31;4.87;;;2.00;;
10191;SDS011;17580;50.850;4.504;2023-12-28T03:17:00;3.13;;;1.93;;
10191;SDS011;17580;50.850;4.504;2023-12-28T03:19:27;5.40;;;2.13;;
10191;SDS011;17580;50.850;4.504;2023-12-28T03:21:55;6.00;;;2.53;;
10191;SDS011;17580;50.850;4.504;2023-12-28T03:24:23;4.00;;;2.00;;
10191;SDS011;17580;50.850;4.504;2023-12-28T03:26:50;6.37;;;2.03;;
10191;SDS011;17580;50.850;4.504;2023-12-28T03:29:18;5.93;;;2.30;;
10191;SDS011;17580;50.850;4.504;2023-12-28T03:31:45;2.83;;;1.93;;
10191;SDS011;17580;50.850;4.504;2023-12-28T03:34:14;7.87;;;2.13;;
10191;SDS011;17580;50.850;4.504;2023-12-28T03:36:41;4.60;;;2.10;;
10191;SDS011;17580;50.850;4.504;2023-12-28T03:39:08;4.73;;;2.43;;
10191;SDS011;17580;50.850;4.504;2023-12-28T03:41:36;7.80;;;2.27;;
10191;SDS011;17580;50.850;4.504;2023-12-28T03:44:03;4.07;;;2.60;;
10191;SDS011;17580;50.850;4.504;2023-12-28T03:46:30;6.10;;;2.10;;
10191;SDS011;17580;50.850;4.504;2023-12-28T03:48:58;5.27;;;2.10;;
10191;SDS011;17580;50.850;4.504;2023-12-28T03:51:27;2.90;;;1.97;;
10191;SDS011;17580;50.850;4.504;2023-12-28T03:53:54;6.53;;;2.30;;
10191;SDS011;17580;50.850;4.504;2023-12-28T03:56:21;6.30;;;1.90;;
10191;SDS011;17580;50.850;4.504;2023-12-28T03:58:49;7.07;;;1.60;;
10191;SDS011;17580;50.850;4.504;2023-12-28T04:01:18;7.93;;;2.67;;
10191;SDS011;17580;50.850;4.504;2023-12-28T04:03:45;3.33;;;2.00;;
10191;SDS011;17580;50.850;4.504;2023-12-28T04:06:13;3.93;;;1.90;;
10191;SDS011;17580;50.850;4.504;2023-12-28T04:08:42;5.80;;;1.87;;
10191;SDS011;17580;50.850;4.504;2023-12-28T04:11:09;7.87;;;2.57;;
10191;SDS011;17580;50.850;4.504;2023-12-28T04:13:37;7.87;;;2.83;;
10191;SDS011;17580;50.850;4.504;2023-12-28T04:16:04;12.03;;;2.43;;
10191;SDS011;17580;50.850;4.504;2023-12-28T04:18:32;4.67;;;2.10;;
10191;SDS011;17580;50.850;4.504;2023-12-28T04:20:59;6.30;;;2.47;;
10191;SDS011;17580;50.850;4.504;2023-12-28T04:23:26;6.37;;;2.57;;
10191;SDS011;17580;50.850;4.504;2023-12-28T04:25:55;6.17;;;2.50;;
10191;SDS011;17580;50.850;4.504;2023-12-28T04:28:22;6.50;;;2.30;;
10191;SDS011;17580;50.850;4.504;2023-12-28T04:30:49;7.30;;;2.23;;
10191;SDS011;17580;50.850;4.504;2023-12-28T04:33:17;8.17;;;2.70;;
10191;SDS011;17580;50.850;4.504;2023-12-28T04:35:45;5.67;;;2.63;;
10191;SDS011;17580;50.850;4.504;2023-12-28T04:38:12;8.40;;;2.87;;
10191;SDS011;17580;50.850;4.504;2023-12-28T04:40:40;6.17;;;2.40;;
10191;SDS011;17580;50.850;4.504;2023-12-28T04:43:09;6.97;;;2.03;;
10191;SDS011;17580;50.850;4.504;2023-12-28T04:45:36;5.47;;;2.20;;
10191;SDS011;17580;50.850;4.504;2023-12-28T04:48:04;9.27;;;3.07;;
10191;SDS011;17580;50.850;4.504;2023-12-28T04:50:31;6.43;;;1.97;;
10191;SDS011;17580;50.850;4.504;2023-12-28T04:52:59;12.10;;;2.60;;
10191;SDS011;17580;50.850;4.504;2023-12-28T04:55:26;12.13;;;3.10;;
10191;SDS011;17580;50.850;4.504;2023-12-28T04:57:53;7.80;;;2.80;;
10191;SDS011;17580;50.850;4.504;2023-12-28T05:00:22;7.43;;;2.40;;
10191;SDS011;17580;50.850;4.504;2023-12-28T05:02:49;5.43;;;2.20;;
10191;SDS011;17580;50.850;4.504;2023-12-28T05:05:16;7.27;;;1.90;;
10191;SDS011;17580;50.850;4.504;2023-12-28T05:07:44;10.17;;;2.47;;
10191;SDS011;17580;50.850;4.504;2023-12-28T05:10:11;9.07;;;3.13;;
10191;SDS011;17580;50.850;4.504;2023-12-28T05:12:38;9.30;;;2.87;;
10191;SDS011;17580;50.850;4.504;2023-12-28T05:15:06;9.40;;;2.73;;
10191;SDS011;17580;50.850;4.504;2023-12-28T05:17:34;8.83;;;2.43;;
10191;SDS011;17580;50.850;4.504;2023-12-28T05:20:02;7.10;;;2.53;;
10191;SDS011;17580;50.850;4.504;2023-12-28T05:22:29;8.10;;;2.27;;
10191;SDS011;17580;50.850;4.504;2023-12-28T05:24:56;13.43;;;3.40;;
10191;SDS011;17580;50.850;4.504;2023-12-28T05:27:24;6.37;;;2.30;;
10191;SDS011;17580;50.850;4.504;2023-12-28T05:29:51;15.40;;;2.93;;
10191;SDS011;17580;50.850;4.504;2023-12-28T05:32:18;8.07;;;3.00;;
10191;SDS011;17580;50.850;4.504;2023-12-28T05:34:47;8.70;;;2.70;;
10191;SDS011;17580;50.850;4.504;2023-12-28T05:37:15;8.80;;;2.27;;
10191;SDS011;17580;50.850;4.504;2023-12-28T05:39:42;5.50;;;2.80;;
10191;SDS011;17580;50.850;4.504;2023-12-28T05:42:10;7.57;;;2.33;;
10191;SDS011;17580;50.850;4.504;2023-12-28T05:44:37;7.57;;;2.60;;
10191;SDS011;17580;50.850;4.504;2023-12-28T05:47:04;10.07;;;2.73;;
10191;SDS011;17580;50.850;4.504;2023-12-28T05:49:31;8.27;;;2.73;;
10191;SDS011;17580;50.850;4.504;2023-12-28T05:52:00;7.90;;;2.87;;
10191;SDS011;17580;50.850;4.504;2023-12-28T05:54:27;4.53;;;2.83;;
10191;SDS011;17580;50.850;4.504;2023-12-28T05:56:55;10.63;;;2.40;;
10191;SDS011;17580;50.850;4.504;2023-12-28T05:59:24;4.53;;;2.57;;
10191;SDS011;17580;50.850;4.504;2023-12-28T06:01:51;7.90;;;2.43;;
10191;SDS011;17580;50.850;4.504;2023-12-28T06:04:19;8.60;;;3.07;;
10191;SDS011;17580;50.850;4.504;2023-12-28T06:06:46;10.68;;;3.42;;
10191;SDS011;17580;50.850;4.504;2023-12-28T06:09:15;10.57;;;2.50;;
10191;SDS011;17580;50.850;4.504;2023-12-28T06:11:42;11.20;;;2.80;;
10191;SDS011;17580;50.850;4.504;2023-12-28T06:14:09;6.70;;;2.37;;
10191;SDS011;17580;50.850;4.504;2023-12-28T06:16:37;15.60;;;3.03;;
10191;SDS011;17580;50.850;4.504;2023-12-28T06:19:04;14.03;;;3.17;;
10191;SDS011;17580;50.850;4.504;2023-12-28T06:21:31;8.50;;;2.60;;
10191;SDS011;17580;50.850;4.504;2023-12-28T06:23:59;9.10;;;2.83;;
10191;SDS011;17580;50.850;4.504;2023-12-28T06:26:27;7.57;;;2.33;;
10191;SDS011;17580;50.850;4.504;2023-12-28T06:28:55;8.37;;;2.93;;
10191;SDS011;17580;50.850;4.504;2023-12-28T06:31:22;8.47;;;3.17;;
10191;SDS011;17580;50.850;4.504;2023-12-28T06:33:50;14.43;;;2.60;;
10191;SDS011;17580;50.850;4.504;2023-12-28T06:36:17;11.13;;;2.83;;
10191;SDS011;17580;50.850;4.504;2023-12-28T06:38:45;7.37;;;2.80;;
10191;SDS011;17580;50.850;4.504;2023-12-28T06:41:12;10.67;;;2.97;;
10191;SDS011;17580;50.850;4.504;2023-12-28T06:43:41;10.10;;;3.30;;
10191;SDS011;17580;50.850;4.504;2023-12-28T06:46:08;11.00;;;2.90;;
10191;SDS011;17580;50.850;4.504;2023-12-28T06:48:36;12.10;;;3.43;;
10191;SDS011;17580;50.850;4.504;2023-12-28T06:51:05;9.27;;;2.83;;
10191;SDS011;17580;50.850;4.504;2023-12-28T06:53:32;7.77;;;2.43;;
10191;SDS011;17580;50.850;4.504;2023-12-28T06:55:59;9.67;;;2.30;;
10191;SDS011;17580;50.850;4.504;2023-12-28T06:58:28;11.10;;;3.20;;
10191;SDS011;17580;50.850;4.504;2023-12-28T07:00:56;7.70;;;2.40;;
10191;SDS011;17580;50.850;4.504;2023-12-28T07:03:23;9.43;;;3.40;;
10191;SDS011;17580;50.850;4.504;2023-12-28T07:05:55;11.70;;;3.10;;
10191;SDS011;17580;50.850;4.504;2023-12-28T07:08:22;8.43;;;2.80;;
10191;SDS011;17580;50.850;4.504;2023-12-28T07:10:50;12.70;;;3.03;;
10191;SDS011;17580;50.850;4.504;2023-12-28T07:13:17;10.80;;;2.43;;
10191;SDS011;17580;50.850;4.504;2023-12-28T07:15:44;8.33;;;2.90;;
10191;SDS011;17580;50.850;4.504;2023-12-28T07:18:13;8.27;;;3.00;;
10191;SDS011;17580;50.850;4.504;2023-12-28T07:20:40;15.13;;;3.10;;
10191;SDS011;17580;50.850;4.504;2023-12-28T07:23:08;11.03;;;2.97;;
10191;SDS011;17580;50.850;4.504;2023-12-28T07:25:35;11.80;;;3.60;;
10191;SDS011;17580;50.850;4.504;2023-12-28T07:28:02;7.93;;;2.73;;
10191;SDS011;17580;50.850;4.504;2023-12-28T07:30:30;12.53;;;3.27;;
10191;SDS011;17580;50.850;4.504;2023-12-28T07:32:57;11.27;;;3.23;;
10191;SDS011;17580;50.850;4.504;2023-12-28T07:35:25;10.43;;;3.30;;
10191;SDS011;17580;50.850;4.504;2023-12-28T07:37:53;11.03;;;3.33;;
10191;SDS011;17580;50.850;4.504;2023-12-28T07:40:20;14.33;;;3.27;;
10191;SDS011;17580;50.850;4.504;2023-12-28T07:42:48;12.53;;;3.37;;
10191;SDS011;17580;50.850;4.504;2023-12-28T07:45:15;11.03;;;3.73;;
10191;SDS011;17580;50.850;4.504;2023-12-28T07:47:48;8.83;;;3.07;;
10191;SDS011;17580;50.850;4.504;2023-12-28T07:50:16;9.03;;;3.03;;
10191;SDS011;17580;50.850;4.504;2023-12-28T07:52:44;10.37;;;2.90;;
10191;SDS011;17580;50.850;4.504;2023-12-28T07:55:12;8.83;;;2.50;;
10191;SDS011;17580;50.850;4.504;2023-12-28T07:57:39;16.83;;;3.60;;
10191;SDS011;17580;50.850;4.504;2023-12-28T08:00:07;13.17;;;3.30;;
10191;SDS011;17580;50.850;4.504;2023-12-28T08:02:34;10.90;;;3.27;;
10191;SDS011;17580;50.850;4.504;2023-12-28T08:05:02;19.83;;;3.97;;
10191;SDS011;17580;50.850;4.504;2023-12-28T08:07:29;13.53;;;3.27;;
10191;SDS011;17580;50.850;4.504;2023-12-28T08:09:58;11.00;;;3.90;;
10191;SDS011;17580;50.850;4.504;2023-12-28T08:12:25;12.17;;;3.27;;
10191;SDS011;17580;50.850;4.504;2023-12-28T08:14:54;7.10;;;2.43;;
10191;SDS011;17580;50.850;4.504;2023-12-28T08:17:21;13.07;;;2.90;;
10191;SDS011;17580;50.850;4.504;2023-12-28T08:19:48;10.40;;;3.20;;
10191;SDS011;17580;50.850;4.504;2023-12-28T08:22:16;9.00;;;2.67;;
10191;SDS011;17580;50.850;4.504;2023-12-28T08:24:43;11.30;;;2.67;;
10191;SDS011;17580;50.850;4.504;2023-12-28T08:27:12;10.47;;;3.13;;
10191;SDS011;17580;50.850;4.504;2023-12-28T08:29:40;12.50;;;2.63;;
10191;SDS011;17580;50.850;4.504;2023-12-28T08:32:07;7.27;;;3.57;;
10191;SDS011;17580;50.850;4.504;2023-12-28T08:34:35;12.57;;;3.27;;
10191;SDS011;17580;50.850;4.504;2023-12-28T08:37:03;11.27;;;3.17;;
10191;SDS011;17580;50.850;4.504;2023-12-28T08:39:30;9.57;;;3.43;;
10191;SDS011;17580;50.850;4.504;2023-12-28T08:41:58;8.03;;;2.97;;
10191;SDS011;17580;50.850;4.504;2023-12-28T08:44:27;9.47;;;3.23;;
10191;SDS011;17580;50.850;4.504;2023-12-28T08:46:54;7.50;;;2.47;;
10191;SDS011;17580;50.850;4.504;2023-12-28T08:49:21;10.37;;;3.60;;
10191;SDS011;17580;50.850;4.504;2023-12-28T08:51:48;9.07;;;2.70;;
10191;SDS011;17580;50.850;4.504;2023-12-28T08:54:16;11.63;;;2.70;;
10191;SDS011;17580;50.850;4.504;2023-12-28T08:56:43;10.50;;;2.90;;
10191;SDS011;17580;50.850;4.504;2023-12-28T08:59:10;14.87;;;3.40;;
10191;SDS011;17580;50.850;4.504;2023-12-28T09:01:39;9.90;;;3.03;;
10191;SDS011;17580;50.850;4.504;2023-12-28T09:04:06;12.07;;;2.77;;
10191;SDS011;17580;50.850;4.504;2023-12-28T09:06:34;11.13;;;2.47;;
10191;SDS011;17580;50.850;4.504;2023-12-28T09:09:01;11.77;;;3.17;;
10191;SDS011;17580;50.850;4.504;2023-12-28T09:11:29;10.20;;;3.00;;
10191;SDS011;17580;50.850;4.504;2023-12-28T09:13:56;10.53;;;3.70;;
10191;SDS011;17580;50.850;4.504;2023-12-28T09:16:24;17.83;;;2.97;;
10191;SDS011;17580;50.850;4.504;2023-12-28T09:18:54;13.83;;;3.30;;
10191;SDS011;17580;50.850;4.504;2023-12-28T09:21:22;10.70;;;3.10;;
10191;SDS011;17580;50.850;4.504;2023-12-28T09:23:50;10.93;;;2.70;;
10191;SDS011;17580;50.850;4.504;2023-12-28T09:26:18;10.83;;;2.67;;
10191;SDS011;17580;50.850;4.504;2023-12-28T09:28:45;14.07;;;5.00;;
10191;SDS011;17580;50.850;4.504;2023-12-28T09:31:12;17.23;;;3.77;;
10191;SDS011;17580;50.850;4.504;2023-12-28T09:33:39;5.97;;;2.57;;
10191;SDS011;17580;50.850;4.504;2023-12-28T09:36:09;13.97;;;3.70;;
10191;SDS011;17580;50.850;4.504;2023-12-28T09:38:37;11.47;;;3.47;;
10191;SDS011;17580;50.850;4.504;2023-12-28T09:41:07;8.93;;;3.00;;
10191;SDS011;17580;50.850;4.504;2023-12-28T09:43:40;22.67;;;3.90;;
10191;SDS011;17580;50.850;4.504;2023-12-28T09:46:08;9.17;;;3.10;;
10191;SDS011;17580;50.850;4.504;2023-12-28T09:48:36;9.73;;;3.13;;
10191;SDS011;17580;50.850;4.504;2023-12-28T09:51:04;13.53;;;3.53;;
10191;SDS011;17580;50.850;4.504;2023-12-28T09:53:33;10.80;;;3.30;;
10191;SDS011;17580;50.850;4.504;2023-12-28T09:56:00;10.57;;;3.27;;
10191;SDS011;17580;50.850;4.504;2023-12-28T09:58:29;14.17;;;4.33;;
10191;SDS011;17580;50.850;4.504;2023-12-28T10:00:57;9.57;;;3.73;;
10191;SDS011;17580;50.850;4.504;2023-12-28T10:03:26;10.57;;;4.10;;
10191;SDS011;17580;50.850;4.504;2023-12-28T10:05:53;14.90;;;4.13;;
10191;SDS011;17580;50.850;4.504;2023-12-28T10:08:21;10.83;;;2.47;;
10191;SDS011;17580;50.850;4.504;2023-12-28T10:10:50;11.77;;;3.50;;
10191;SDS011;17580;50.850;4.504;2023-12-28T10:13:19;7.40;;;3.13;;
10191;SDS011;17580;50.850;4.504;2023-12-28T10:15:47;11.03;;;4.40;;
10191;SDS011;17580;50.850;4.504;2023-12-28T10:18:16;15.80;;;6.70;;
10191;SDS011;17580;50.850;4.504;2023-12-28T10:20:48;13.03;;;5.30;;
10191;SDS011;17580;50.850;4.504;2023-12-28T10:23:16;8.23;;;2.67;;
10191;SDS011;17580;50.850;4.504;2023-12-28T10:25:43;14.47;;;4.33;;
10191;SDS011;17580;50.850;4.504;2023-12-28T10:28:13;10.77;;;3.63;;
10191;SDS011;17580;50.850;4.504;2023-12-28T10:30:43;17.83;;;3.43;;
10191;SDS011;17580;50.850;4.504;2023-12-28T10:33:11;9.27;;;2.67;;
10191;SDS011;17580;50.850;4.504;2023-12-28T10:35:38;13.23;;;3.57;;
10191;SDS011;17580;50.850;4.504;2023-12-28T10:38:05;11.63;;;3.27;;
10191;SDS011;17580;50.850;4.504;2023-12-28T10:40:34;12.07;;;4.07;;
10191;SDS011;17580;50.850;4.504;2023-12-28T10:43:04;15.73;;;4.27;;
10191;SDS011;17580;50.850;4.504;2023-12-28T10:45:34;13.10;;;3.47;;
10191;SDS011;17580;50.850;4.504;2023-12-28T10:48:04;7.20;;;2.53;;
10191;SDS011;17580;50.850;4.504;2023-12-28T10:50:34;7.63;;;3.27;;
10191;SDS011;17580;50.850;4.504;2023-12-28T10:53:07;19.43;;;4.50;;
10191;SDS011;17580;50.850;4.504;2023-12-28T10:55:40;7.23;;;2.73;;
10191;SDS011;17580;50.850;4.504;2023-12-28T10:58:10;11.27;;;3.17;;
10191;SDS011;17580;50.850;4.504;2023-12-28T11:00:41;13.87;;;3.83;;
10191;SDS011;17580;50.850;4.504;2023-12-28T11:03:11;13.43;;;3.73;;
10191;SDS011;17580;50.850;4.504;2023-12-28T11:05:40;11.00;;;2.83;;
10191;SDS011;17580;50.850;4.504;2023-12-28T11:08:10;15.17;;;4.07;;
10191;SDS011;17580;50.850;4.504;2023-12-28T11:10:38;12.00;;;4.00;;
10191;SDS011;17580;50.850;4.504;2023-12-28T11:13:06;13.47;;;3.97;;
10191;SDS011;17580;50.850;4.504;2023-12-28T11:15:35;16.63;;;3.27;;
10191;SDS011;17580;50.850;4.504;2023-12-28T11:18:05;9.13;;;3.03;;
10191;SDS011;17580;50.850;4.504;2023-12-28T11:20:32;12.87;;;3.77;;
10191;SDS011;17580;50.850;4.504;2023-12-28T11:23:00;7.67;;;2.80;;
10191;SDS011;17580;50.850;4.504;2023-12-28T11:25:30;9.13;;;3.07;;
10191;SDS011;17580;50.850;4.504;2023-12-28T11:27:59;11.47;;;3.40;;
10191;SDS011;17580;50.850;4.504;2023-12-28T11:30:26;11.90;;;3.50;;
10191;SDS011;17580;50.850;4.504;2023-12-28T11:32:55;12.73;;;3.10;;
10191;SDS011;17580;50.850;4.504;2023-12-28T11:35:25;14.40;;;3.80;;
10191;SDS011;17580;50.850;4.504;2023-12-28T11:37:58;16.33;;;3.80;;
10191;SDS011;17580;50.850;4.504;2023-12-28T11:40:29;12.57;;;3.93;;
10191;SDS011;17580;50.850;4.504;2023-12-28T11:42:56;11.10;;;3.33;;
10191;SDS011;17580;50.850;4.504;2023-12-28T11:45:23;11.30;;;3.07;;
10191;SDS011;17580;50.850;4.504;2023-12-28T11:48:00;9.33;;;3.03;;
10191;SDS011;17580;50.850;4.504;2023-12-28T11:50:29;6.40;;;2.67;;
10191;SDS011;17580;50.850;4.504;2023-12-28T11:52:56;14.40;;;4.23;;
10191;SDS011;17580;50.850;4.504;2023-12-28T11:55:24;9.33;;;3.20;;
10191;SDS011;17580;50.850;4.504;2023-12-28T11:57:51;9.57;;;3.40;;
10191;SDS011;17580;50.850;4.504;2023-12-28T12:00:18;14.97;;;3.13;;
10191;SDS011;17580;50.850;4.504;2023-12-28T12:02:46;14.63;;;3.70;;
10191;SDS011;17580;50.850;4.504;2023-12-28T12:05:14;14.87;;;3.77;;
10191;SDS011;17580;50.850;4.504;2023-12-28T12:07:43;16.23;;;3.73;;
10191;SDS011;17580;50.850;4.504;2023-12-28T12:10:14;11.20;;;3.13;;
10191;SDS011;17580;50.850;4.504;2023-12-28T12:12:42;13.63;;;3.60;;
10191;SDS011;17580;50.850;4.504;2023-12-28T12:15:09;7.20;;;2.70;;
10191;SDS011;17580;50.850;4.504;2023-12-28T12:17:37;11.03;;;2.83;;
10191;SDS011;17580;50.850;4.504;2023-12-28T12:20:05;10.23;;;3.60;;
10191;SDS011;17580;50.850;4.504;2023-12-28T12:22:33;12.77;;;3.43;;
10191;SDS011;17580;50.850;4.504;2023-12-28T12:25:01;10.63;;;3.70;;
10191;SDS011;17580;50.850;4.504;2023-12-28T12:27:30;19.17;;;4.20;;
10191;SDS011;17580;50.850;4.504;2023-12-28T12:29:57;12.47;;;3.70;;
10191;SDS011;17580;50.850;4.504;2023-12-28T12:32:25;11.17;;;3.40;;
10191;SDS011;17580;50.850;4.504;2023-12-28T12:34:52;11.60;;;3.20;;
10191;SDS011;17580;50.850;4.504;2023-12-28T12:37:20;12.17;;;4.03;;
10191;SDS011;17580;50.850;4.504;2023-12-28T12:39:47;11.13;;;2.60;;
10191;SDS011;17580;50.850;4.504;2023-12-28T12:42:16;12.53;;;3.07;;
10191;SDS011;17580;50.850;4.504;2023-12-28T12:44:44;13.43;;;4.07;;
10191;SDS011;17580;50.850;4.504;2023-12-28T12:47:12;11.70;;;3.10;;
10191;SDS011;17580;50.850;4.504;2023-12-28T12:49:39;16.80;;;3.30;;
10191;SDS011;17580;50.850;4.504;2023-12-28T12:52:08;12.17;;;3.50;;
10191;SDS011;17580;50.850;4.504;2023-12-28T12:54:35;12.90;;;2.87;;
10191;SDS011;17580;50.850;4.504;2023-12-28T12:57:03;9.57;;;3.80;;
10191;SDS011;17580;50.850;4.504;2023-12-28T12:59:31;13.23;;;3.07;;
10191;SDS011;17580;50.850;4.504;2023-12-28T13:02:00;11.97;;;3.20;;
10191;SDS011;17580;50.850;4.504;2023-12-28T13:04:27;11.53;;;3.13;;
10191;SDS011;17580;50.850;4.504;2023-12-28T13:06:54;12.90;;;2.90;;
10191;SDS011;17580;50.850;4.504;2023-12-28T13:09:22;11.63;;;3.37;;
10191;SDS011;17580;50.850;4.504;2023-12-28T13:11:49;13.47;;;3.23;;
10191;SDS011;17580;50.850;4.504;2023-12-28T13:14:17;9.07;;;3.27;;
10191;SDS011;17580;50.850;4.504;2023-12-28T13:16:47;13.87;;;4.23;;
10191;SDS011;17580;50.850;4.504;2023-12-28T13:19:19;11.90;;;3.40;;
10191;SDS011;17580;50.850;4.504;2023-12-28T13:21:46;15.67;;;3.80;;
10191;SDS011;17580;50.850;4.504;2023-12-28T13:24:14;13.80;;;3.30;;
10191;SDS011;17580;50.850;4.504;2023-12-28T13:26:41;9.13;;;2.73;;
10191;SDS011;17580;50.850;4.504;2023-12-28T13:29:08;8.47;;;2.80;;
10191;SDS011;17580;50.850;4.504;2023-12-28T13:31:35;11.57;;;3.10;;
10191;SDS011;17580;50.850;4.504;2023-12-28T13:34:04;10.53;;;3.00;;
10191;SDS011;17580;50.850;4.504;2023-12-28T13:36:31;9.33;;;3.13;;
10191;SDS011;17580;50.850;4.504;2023-12-28T13:38:59;7.90;;;2.73;;
10191;SDS011;17580;50.850;4.504;2023-12-28T13:41:27;10.33;;;2.23;;
10191;SDS011;17580;50.850;4.504;2023-12-28T13:43:56;13.87;;;3.23;;
10191;SDS011;17580;50.850;4.504;2023-12-28T13:46:27;11.50;;;3.37;;
10191;SDS011;17580;50.850;4.504;2023-12-28T13:48:54;14.17;;;3.30;;
10191;SDS011;17580;50.850;4.504;2023-12-28T13:51:23;10.77;;;2.63;;
10191;SDS011;17580;50.850;4.504;2023-12-28T13:53:50;11.37;;;2.73;;
10191;SDS011;17580;50.850;4.504;2023-12-28T13:56:18;11.40;;;3.53;;
10191;SDS011;17580;50.850;4.504;2023-12-28T13:58:45;8.07;;;2.90;;
10191;SDS011;17580;50.850;4.504;2023-12-28T14:01:12;11.57;;;2.80;;
10191;SDS011;17580;50.850;4.504;2023-12-28T14:03:40;7.67;;;3.27;;
10191;SDS011;17580;50.850;4.504;2023-12-28T14:06:07;12.17;;;2.83;;
10191;SDS011;17580;50.850;4.504;2023-12-28T14:08:37;9.87;;;2.67;;
10191;SDS011;17580;50.850;4.504;2023-12-28T14:11:04;10.20;;;3.63;;
10191;SDS011;17580;50.850;4.504;2023-12-28T14:13:31;11.50;;;3.13;;
10191;SDS011;17580;50.850;4.504;2023-12-28T14:16:00;13.83;;;3.73;;
10191;SDS011;17580;50.850;4.504;2023-12-28T14:18:27;10.07;;;2.70;;
10191;SDS011;17580;50.850;4.504;2023-12-28T14:20:55;16.70;;;3.40;;
10191;SDS011;17580;50.850;4.504;2023-12-28T14:23:22;9.03;;;2.90;;
10191;SDS011;17580;50.850;4.504;2023-12-28T14:25:51;13.20;;;3.00;;
10191;SDS011;17580;50.850;4.504;2023-12-28T14:28:20;7.53;;;2.57;;
10191;SDS011;17580;50.850;4.504;2023-12-28T14:30:49;8.90;;;2.17;;
10191;SDS011;17580;50.850;4.504;2023-12-28T14:33:16;6.83;;;2.37;;
10191;SDS011;17580;50.850;4.504;2023-12-28T14:35:44;11.13;;;3.10;;
10191;SDS011;17580;50.850;4.504;2023-12-28T14:38:13;7.33;;;2.03;;
10191;SDS011;17580;50.850;4.504;2023-12-28T14:40:40;13.07;;;2.53;;
10191;SDS011;17580;50.850;4.504;2023-12-28T14:43:08;9.07;;;2.80;;
10191;SDS011;17580;50.850;4.504;2023-12-28T14:45:36;8.73;;;2.73;;
10191;SDS011;17580;50.850;4.504;2023-12-28T14:48:03;11.77;;;2.83;;